Карточка аэропорта UWKE

Внимание!
Информация на этой странице в стадии наполнения.
Если вы не увидели какой-то информации, или заметили неточность - пожалуйста сообщите нам!
Спасибо!
Команда RU-STAFF
Название аэропортаБегишево
Название аэропорта (англ.)Begishevo
Превышение643 ft. (196 m.)
Координаты55°33.882', 52°5.5500000000001'
Высота перехода700m
Эшелон переходаQFE>=742mm:FL040; QFE<742=>715:FL050; QFE<715:FL060
Коды ответчика1000
Зона ОрВДСамара РПИ (UWWW)
Данные METARUWKE 220700Z 04006MPS 9000 -DZ OVC004 14/14 Q1006 R03/190060 TEMPO OVC002 RMK OBST OBSC QFE737/0983
Проноз погоды (TAF)UWKE 220655Z 2206/2306 03005G12MPS 8000 OVC003 TEMPO 2206/2212 04007G14MPS 0500 SHRA FG BKN002 BKN020CB FM221200 04008G15MPS 9999 BKN016 TEMPO 2212/2218 6000 -SHRA BKN007 BKN020CB TEMPO 2218/2306 0700 FG VV002
NOTAMshow/hide NOTAM
AWOS   TABLE

Информация о ВПП

ВПП Длина ВПП (м.) Покрытие Курс ВПП Частота ILS
032502Асфальтобетон34 
212502Асфальтобетон214109.9

Диспетчерские позиции

Позывной Наименование органа УВД Частота
UWKE_TWRБегишево-Вышка121.200
UWKE_R_APPБегишево-Круг127.900



Спутниковое изображение